createdAt,value
2017-05-02T00:00:01.672Z,975.06
2017-05-02T00:01:04.049Z,975.10
2017-05-02T00:02:06.422Z,975.12
2017-05-02T00:03:09.386Z,975.08
2017-05-02T00:04:11.764Z,975.11
2017-05-02T00:05:14.130Z,975.14
2017-05-02T00:06:16.499Z,975.13
2017-05-02T00:07:18.864Z,975.10
2017-05-02T00:08:21.841Z,975.09
2017-05-02T00:09:24.210Z,975.10
2017-05-02T00:10:26.791Z,975.11
2017-05-02T00:11:29.161Z,975.14
2017-05-02T00:12:31.529Z,975.12
2017-05-02T00:13:34.502Z,975.17
2017-05-02T00:14:36.867Z,975.15
2017-05-02T00:15:39.239Z,975.17
2017-05-02T00:16:41.611Z,975.14
2017-05-02T00:17:43.979Z,975.19
2017-05-02T00:18:46.909Z,975.16
2017-05-02T00:19:49.278Z,975.14
2017-05-02T00:20:51.660Z,975.17
2017-05-02T00:21:54.022Z,975.19
2017-05-02T00:22:56.397Z,975.19
2017-05-02T00:23:59.362Z,975.22
2017-05-02T00:25:01.721Z,975.25
2017-05-02T00:26:04.092Z,975.28
2017-05-02T00:27:06.456Z,975.33
2017-05-02T00:28:08.829Z,975.34
2017-05-02T00:29:11.800Z,975.40
2017-05-02T00:30:14.165Z,975.36
2017-05-02T00:31:16.524Z,975.45
2017-05-02T00:32:18.890Z,975.42
2017-05-02T00:33:21.263Z,975.43
2017-05-02T00:34:24.232Z,975.41
2017-05-02T00:35:26.598Z,975.41
2017-05-02T00:36:28.961Z,975.38
2017-05-02T00:37:31.344Z,975.36
2017-05-02T00:38:33.705Z,975.38
2017-05-02T00:39:36.684Z,975.40
2017-05-02T00:40:39.052Z,975.39
2017-05-02T00:41:41.422Z,975.46
2017-05-02T00:42:43.787Z,975.47
2017-05-02T00:43:46.158Z,975.48
2017-05-02T00:44:49.226Z,975.47
2017-05-02T00:45:51.602Z,975.51
2017-05-02T00:46:53.966Z,975.51
2017-05-02T00:47:56.327Z,975.50
2017-05-02T00:48:58.695Z,975.52
2017-05-02T00:50:01.864Z,975.55
2017-05-02T00:51:04.235Z,975.57
2017-05-02T00:52:49.815Z,975.59
2017-05-02T00:53:52.179Z,975.57
2017-05-02T00:54:54.557Z,975.58
2017-05-02T00:55:57.519Z,975.55
2017-05-02T00:56:59.888Z,975.56
2017-05-02T00:58:02.256Z,975.61
2017-05-02T00:59:04.629Z,975.62
2017-05-02T01:00:07.002Z,975.63
2017-05-02T01:01:09.981Z,975.67
2017-05-02T01:02:12.352Z,975.69
2017-05-02T01:03:14.717Z,975.71
2017-05-02T01:04:17.097Z,975.72
2017-05-02T01:05:19.480Z,975.76
2017-05-02T01:06:22.452Z,975.80
2017-05-02T01:07:24.842Z,975.86
2017-05-02T01:08:27.215Z,975.86
2017-05-02T01:09:29.584Z,975.85
2017-05-02T01:10:31.969Z,975.83
2017-05-02T01:11:34.949Z,975.84
2017-05-02T01:12:37.326Z,975.84
2017-05-02T01:13:39.700Z,975.80
2017-05-02T01:14:42.089Z,975.83
2017-05-02T01:15:44.467Z,975.85
2017-05-02T01:16:47.445Z,975.86
2017-05-02T01:17:49.830Z,975.86
2017-05-02T01:18:52.220Z,975.86
2017-05-02T01:19:54.596Z,975.88
2017-05-02T01:20:56.982Z,975.86
2017-05-02T01:21:59.965Z,975.90
2017-05-02T01:23:02.346Z,975.88
2017-05-02T01:24:04.726Z,975.92
2017-05-02T01:25:07.308Z,975.92
2017-05-02T01:26:09.695Z,975.92
2017-05-02T01:27:12.679Z,975.86
2017-05-02T01:28:15.057Z,975.88
2017-05-02T01:29:17.431Z,975.92
2017-05-02T01:30:19.818Z,975.88
2017-05-02T01:31:22.188Z,975.88
2017-05-02T01:32:25.174Z,975.89
2017-05-02T01:33:27.553Z,975.87
2017-05-02T01:34:29.931Z,975.86
2017-05-02T01:35:32.317Z,975.87
2017-05-02T01:36:34.708Z,975.88
2017-05-02T01:37:37.682Z,975.89
2017-05-02T01:38:40.056Z,975.91
2017-05-02T01:39:42.426Z,975.94
2017-05-02T01:40:44.806Z,975.94
2017-05-02T01:41:47.191Z,975.98
2017-05-02T01:42:50.177Z,976.02
2017-05-02T01:43:52.558Z,975.97
2017-05-02T01:44:54.931Z,975.97
2017-05-02T01:45:57.314Z,975.97
2017-05-02T01:46:59.698Z,975.98
2017-05-02T01:48:02.670Z,975.98
2017-05-02T01:49:05.268Z,976.01
2017-05-02T01:50:07.641Z,975.98
2017-05-02T01:51:10.020Z,976.04
2017-05-02T01:52:12.401Z,976.05
2017-05-02T01:53:15.400Z,976.05
2017-05-02T01:54:17.974Z,976.07
2017-05-02T01:55:20.353Z,976.08
2017-05-02T01:56:22.740Z,976.09
2017-05-02T01:57:25.113Z,976.07
2017-05-02T01:58:28.088Z,976.09
2017-05-02T01:59:30.467Z,976.10
2017-05-02T02:00:32.845Z,976.09
2017-05-02T02:01:35.229Z,976.13
2017-05-02T02:02:37.612Z,976.16
2017-05-02T02:03:40.593Z,976.16
2017-05-02T02:04:43.178Z,976.15
2017-05-02T02:05:45.755Z,976.15
2017-05-02T02:06:48.140Z,976.17
2017-05-02T02:07:50.527Z,976.20
2017-05-02T02:08:53.501Z,976.18
2017-05-02T02:09:55.875Z,976.23
2017-05-02T02:10:58.269Z,976.20
2017-05-02T02:12:00.641Z,976.17
2017-05-02T02:13:03.027Z,976.17
2017-05-02T02:14:06.004Z,976.19
2017-05-02T02:15:08.392Z,976.27
2017-05-02T02:16:10.767Z,976.26
2017-05-02T02:17:13.155Z,976.30
2017-05-02T02:18:15.550Z,976.31
2017-05-02T02:19:18.523Z,976.37
2017-05-02T02:20:20.902Z,976.39
2017-05-02T02:21:23.496Z,976.41
2017-05-02T02:22:25.876Z,976.41
2017-05-02T02:23:28.450Z,976.39
2017-05-02T02:24:31.436Z,976.42
2017-05-02T02:25:33.809Z,976.41
2017-05-02T02:26:36.192Z,976.44
2017-05-02T02:27:38.566Z,976.45
2017-05-02T02:28:40.938Z,976.44
2017-05-02T02:29:43.918Z,976.45
2017-05-02T02:30:46.296Z,976.49
2017-05-02T02:31:48.676Z,976.45
2017-05-02T02:32:51.056Z,976.45
2017-05-02T02:33:53.434Z,976.48
2017-05-02T02:34:56.419Z,976.47
2017-05-02T02:35:58.798Z,976.52
2017-05-02T02:37:01.181Z,976.52
2017-05-02T02:38:03.555Z,976.53
2017-05-02T02:39:05.937Z,976.55
2017-05-02T02:40:08.912Z,976.54
2017-05-02T02:41:11.291Z,976.52
2017-05-02T02:42:13.674Z,976.55
2017-05-02T02:43:16.052Z,976.57
2017-05-02T02:44:18.443Z,976.57
2017-05-02T02:45:21.421Z,976.60
2017-05-02T02:46:23.812Z,976.61
2017-05-02T02:47:26.192Z,976.62
2017-05-02T02:48:28.570Z,976.67
2017-05-02T02:49:30.956Z,976.68
2017-05-02T02:50:35.534Z,976.70
2017-05-02T02:51:37.912Z,976.70
2017-05-02T02:52:40.291Z,976.75
2017-05-02T02:53:42.665Z,976.72
2017-05-02T02:54:45.048Z,976.72
2017-05-02T02:55:48.027Z,976.72
2017-05-02T02:56:50.411Z,976.72
2017-05-02T02:57:52.786Z,976.73
2017-05-02T02:58:55.167Z,976.76
2017-05-02T02:59:57.546Z,976.82
2017-05-02T03:01:00.519Z,976.79
2017-05-02T03:02:03.109Z,976.84
2017-05-02T03:03:05.469Z,976.87
2017-05-02T03:04:07.839Z,976.90
2017-05-02T03:05:10.399Z,976.92
2017-05-02T03:06:13.579Z,976.93
2017-05-02T03:07:15.944Z,976.92
2017-05-02T03:08:18.307Z,976.97
2017-05-02T03:09:20.672Z,976.99
2017-05-02T03:10:23.036Z,977.05
2017-05-02T03:11:26.004Z,977.07
2017-05-02T03:12:28.368Z,977.13
2017-05-02T03:13:30.738Z,977.11
2017-05-02T03:14:33.103Z,977.14
2017-05-02T03:15:35.474Z,977.16
2017-05-02T03:16:38.441Z,977.16
2017-05-02T03:17:40.806Z,977.19
2017-05-02T03:18:43.184Z,977.21
2017-05-02T03:19:45.553Z,977.22
2017-05-02T03:20:47.920Z,977.23
2017-05-02T03:21:50.891Z,977.21
2017-05-02T03:22:53.256Z,977.19
2017-05-02T03:23:55.632Z,977.19
2017-05-02T03:24:57.994Z,977.19
2017-05-02T03:26:00.367Z,977.23
2017-05-02T03:27:03.332Z,977.23
2017-05-02T03:28:05.696Z,977.20
2017-05-02T03:29:08.069Z,977.22
2017-05-02T03:30:10.447Z,977.23
2017-05-02T03:31:12.807Z,977.25
2017-05-02T03:32:15.782Z,977.28
2017-05-02T03:33:18.152Z,977.24
2017-05-02T03:34:20.509Z,977.28
2017-05-02T03:35:22.886Z,977.28
2017-05-02T03:36:25.246Z,977.30
2017-05-02T03:37:28.216Z,977.29
2017-05-02T03:38:30.585Z,977.27
2017-05-02T03:39:32.957Z,977.27
2017-05-02T03:40:35.318Z,977.32
2017-05-02T03:41:37.722Z,977.29
2017-05-02T03:42:40.644Z,977.31
2017-05-02T03:43:43.011Z,977.30
2017-05-02T03:44:45.375Z,977.30
2017-05-02T03:46:53.125Z,977.30
2017-05-02T03:47:55.494Z,977.30
2017-05-02T03:48:57.864Z,977.33
2017-05-02T03:50:00.228Z,977.32
2017-05-02T03:51:02.625Z,977.37
2017-05-02T03:52:06.320Z,977.38
2017-05-02T03:53:08.684Z,977.45
2017-05-02T03:54:11.048Z,977.42
2017-05-02T03:55:13.429Z,977.46
2017-05-02T03:56:15.794Z,977.46
2017-05-02T03:57:18.764Z,977.48
2017-05-02T03:58:21.125Z,977.48
2017-05-02T03:59:23.490Z,977.45
2017-05-02T04:00:25.865Z,977.43
2017-05-02T04:01:28.236Z,977.48
2017-05-02T04:02:31.667Z,977.53
2017-05-02T04:03:34.027Z,977.51
2017-05-02T04:04:36.392Z,977.54
2017-05-02T04:05:38.759Z,977.51
2017-05-02T04:06:41.136Z,977.52
2017-05-02T04:07:44.049Z,977.54
2017-05-02T04:08:46.417Z,977.53
2017-05-02T04:09:48.783Z,977.56
2017-05-02T04:10:51.148Z,977.56
2017-05-02T04:11:53.508Z,977.57
2017-05-02T04:12:56.429Z,977.59
2017-05-02T04:13:58.800Z,977.58
2017-05-02T04:15:01.179Z,977.61
2017-05-02T04:16:03.542Z,977.61
2017-05-02T04:17:05.904Z,977.60
2017-05-02T04:18:08.883Z,977.60
2017-05-02T04:19:11.251Z,977.62
2017-05-02T04:20:13.617Z,977.58
2017-05-02T04:21:15.977Z,977.60
2017-05-02T04:22:18.348Z,977.60
2017-05-02T04:23:21.315Z,977.58
2017-05-02T04:24:23.677Z,977.61
2017-05-02T04:25:26.046Z,977.60
2017-05-02T04:26:28.411Z,977.60
2017-05-02T04:27:30.785Z,977.57
2017-05-02T04:28:33.750Z,977.56
2017-05-02T04:29:36.124Z,977.57
2017-05-02T04:30:38.488Z,977.54
2017-05-02T04:31:40.858Z,977.55
2017-05-02T04:32:43.227Z,977.57
2017-05-02T04:33:46.144Z,977.54
2017-05-02T04:34:48.501Z,977.59
2017-05-02T04:35:50.874Z,977.59
2017-05-02T04:36:53.236Z,977.55
2017-05-02T04:37:55.620Z,977.55
2017-05-02T04:38:58.534Z,977.57
2017-05-02T04:40:00.904Z,977.52
2017-05-02T04:41:03.265Z,977.50
2017-05-02T04:42:05.633Z,977.51
2017-05-02T04:43:08.018Z,977.45
2017-05-02T04:44:10.973Z,977.51
2017-05-02T04:45:13.346Z,977.49
2017-05-02T04:46:15.723Z,977.47
2017-05-02T04:47:18.090Z,977.44
2017-05-02T04:48:20.468Z,977.42
2017-05-02T04:49:23.425Z,977.41
2017-05-02T04:50:25.789Z,977.37
2017-05-02T04:51:28.177Z,977.34
2017-05-02T04:52:30.546Z,977.33
2017-05-02T04:53:32.912Z,977.31
2017-05-02T04:54:37.832Z,977.31
2017-05-02T04:55:40.202Z,977.30
2017-05-02T04:56:42.564Z,977.26
2017-05-02T04:57:44.932Z,977.26
2017-05-02T04:58:47.288Z,977.23
2017-05-02T04:59:50.253Z,977.23
2017-05-02T05:00:52.621Z,977.21
2017-05-02T05:01:54.995Z,977.22
2017-05-02T05:02:57.362Z,977.24
2017-05-02T05:03:59.765Z,977.24
2017-05-02T05:05:02.693Z,977.24
2017-05-02T05:06:05.059Z,977.24
2017-05-02T05:07:07.421Z,977.25
2017-05-02T05:08:09.815Z,977.23
2017-05-02T05:09:12.149Z,977.25
2017-05-02T05:10:15.116Z,977.26
2017-05-02T05:11:17.480Z,977.32
2017-05-02T05:12:19.848Z,977.29
2017-05-02T05:13:22.220Z,977.33
2017-05-02T05:14:24.589Z,977.34
2017-05-02T05:15:27.555Z,977.36
2017-05-02T05:16:29.931Z,977.34
2017-05-02T05:17:32.300Z,977.38
2017-05-02T05:18:34.662Z,977.33
2017-05-02T05:19:37.024Z,977.36
2017-05-02T05:20:41.897Z,977.36
2017-05-02T05:21:44.257Z,977.34
2017-05-02T05:22:46.626Z,977.38
2017-05-02T05:23:48.998Z,977.37
2017-05-02T05:24:51.360Z,977.43
2017-05-02T05:25:54.276Z,977.42
2017-05-02T05:26:56.647Z,977.40
2017-05-02T05:27:59.004Z,977.43
2017-05-02T05:29:01.374Z,977.43
2017-05-02T05:30:03.735Z,977.37
2017-05-02T05:31:08.616Z,977.37
2017-05-02T05:32:10.978Z,977.38
2017-05-02T05:33:13.343Z,977.36
2017-05-02T05:34:15.713Z,977.36
2017-05-02T05:35:18.072Z,977.40
2017-05-02T05:36:20.991Z,977.39
2017-05-02T05:37:23.361Z,977.39
2017-05-02T05:38:25.723Z,977.37
2017-05-02T05:39:28.091Z,977.36
2017-05-02T05:40:30.462Z,977.36
2017-05-02T05:41:33.366Z,977.35
2017-05-02T05:42:35.733Z,977.37
2017-05-02T05:43:38.094Z,977.31
2017-05-02T05:44:40.461Z,977.33
2017-05-02T05:45:42.825Z,977.30
2017-05-02T05:46:45.794Z,977.30
2017-05-02T05:47:48.162Z,977.28
2017-05-02T05:48:50.528Z,977.29
2017-05-02T05:49:52.885Z,977.25
2017-05-02T05:50:55.451Z,977.24
2017-05-02T05:51:58.370Z,977.23
2017-05-02T05:53:00.735Z,977.19
2017-05-02T05:54:03.104Z,977.19
2017-05-02T05:55:05.463Z,977.17
2017-05-02T05:56:07.819Z,977.18
2017-05-02T05:57:10.742Z,977.17
2017-05-02T05:58:13.098Z,977.15
2017-05-02T05:59:15.466Z,977.16
2017-05-02T06:00:17.836Z,977.19
2017-05-02T06:01:20.209Z,977.15
2017-05-02T06:02:23.178Z,977.15
2017-05-02T06:03:25.537Z,977.15
2017-05-02T06:04:27.910Z,977.18
2017-05-02T06:05:30.269Z,977.20
2017-05-02T06:06:32.639Z,977.19
2017-05-02T06:07:35.557Z,977.25
2017-05-02T06:08:37.924Z,977.25
2017-05-02T06:09:40.292Z,977.28
2017-05-02T06:10:42.658Z,977.25
2017-05-02T06:11:45.027Z,977.24
2017-05-02T06:12:47.995Z,977.22
2017-05-02T06:13:50.360Z,977.24
2017-05-02T06:14:52.728Z,977.22
2017-05-02T06:15:55.100Z,977.24
2017-05-02T06:16:57.467Z,977.20
2017-05-02T06:18:00.380Z,977.23
2017-05-02T06:19:02.756Z,977.20
2017-05-02T06:20:05.114Z,977.23
2017-05-02T06:21:07.481Z,977.20
2017-05-02T06:22:09.845Z,977.21
2017-05-02T06:23:12.764Z,977.20
2017-05-02T06:24:15.127Z,977.20
2017-05-02T06:25:17.486Z,977.19
2017-05-02T06:26:19.849Z,977.20
2017-05-02T06:27:22.217Z,977.19
2017-05-02T06:28:25.128Z,977.19
2017-05-02T06:29:27.490Z,977.20
2017-05-02T06:30:29.856Z,977.21
2017-05-02T06:31:32.215Z,977.20
2017-05-02T06:32:34.585Z,977.20
2017-05-02T06:33:37.566Z,977.22
2017-05-02T06:34:39.911Z,977.22
2017-05-02T06:35:42.281Z,977.22
2017-05-02T06:36:44.650Z,977.25
2017-05-02T06:37:47.016Z,977.25
2017-05-02T06:38:49.989Z,977.29
2017-05-02T06:39:52.347Z,977.26
2017-05-02T06:40:54.721Z,977.28
2017-05-02T06:41:57.078Z,977.23
2017-05-02T06:42:59.449Z,977.24
2017-05-02T06:44:02.414Z,977.23
2017-05-02T06:45:04.776Z,977.23
2017-05-02T06:46:07.143Z,977.25
2017-05-02T06:47:09.502Z,977.21
2017-05-02T06:48:11.874Z,977.18
2017-05-02T06:49:14.830Z,977.18
2017-05-02T06:50:17.200Z,977.20
2017-05-02T06:51:19.565Z,977.22
2017-05-02T06:52:21.935Z,977.18
2017-05-02T06:53:24.303Z,977.21
2017-05-02T06:54:27.221Z,977.20
2017-05-02T06:55:29.582Z,977.24
2017-05-02T06:56:31.956Z,977.23
2017-05-02T06:57:34.315Z,977.22
2017-05-02T06:58:36.682Z,977.20
2017-05-02T06:59:39.654Z,977.20
2017-05-02T07:00:42.016Z,977.18
2017-05-02T07:01:44.380Z,977.21
2017-05-02T07:02:46.743Z,977.20
2017-05-02T07:03:49.113Z,977.21
2017-05-02T07:04:52.085Z,977.18
2017-05-02T07:05:54.452Z,977.16
2017-05-02T07:06:56.819Z,977.14
2017-05-02T07:07:59.185Z,977.13
2017-05-02T07:09:01.553Z,977.12
2017-05-02T07:10:04.513Z,977.09
2017-05-02T07:11:06.875Z,977.05
2017-05-02T07:12:09.238Z,977.04
2017-05-02T07:13:11.604Z,977.02
2017-05-02T07:14:13.969Z,976.98
2017-05-02T07:15:16.934Z,976.99
2017-05-02T07:16:19.305Z,976.96
2017-05-02T07:17:21.668Z,976.91
2017-05-02T07:18:24.036Z,976.89
2017-05-02T07:19:26.411Z,976.91
2017-05-02T07:20:29.374Z,976.90
2017-05-02T07:21:31.740Z,976.85
2017-05-02T07:22:34.108Z,976.81
2017-05-02T07:23:36.474Z,976.79
2017-05-02T07:24:38.839Z,976.80
2017-05-02T07:25:41.803Z,976.77
2017-05-02T07:26:44.169Z,976.72
2017-05-02T07:27:46.537Z,976.74
2017-05-02T07:28:48.895Z,976.71
2017-05-02T07:29:51.266Z,976.72
2017-05-02T07:30:54.186Z,976.66
2017-05-02T07:31:56.555Z,976.68
2017-05-02T07:32:58.931Z,976.65
2017-05-02T07:34:01.296Z,976.65
2017-05-02T07:35:03.664Z,976.65
2017-05-02T07:36:06.593Z,976.64
2017-05-02T07:37:08.956Z,976.65
2017-05-02T07:38:11.322Z,976.63
2017-05-02T07:39:13.687Z,976.62
2017-05-02T07:40:16.054Z,976.62
2017-05-02T07:41:19.023Z,976.59
2017-05-02T07:42:21.385Z,976.55
2017-05-02T07:43:23.747Z,976.52
2017-05-02T07:44:26.116Z,976.53
2017-05-02T07:45:28.480Z,976.49
2017-05-02T07:46:31.443Z,976.43
2017-05-02T07:47:33.807Z,976.46
2017-05-02T07:48:36.173Z,976.41
2017-05-02T07:49:38.540Z,976.44
2017-05-02T07:50:40.901Z,976.39
2017-05-02T07:51:43.869Z,976.39
2017-05-02T07:52:46.240Z,976.37
2017-05-02T07:53:48.603Z,976.35
2017-05-02T07:54:50.970Z,976.36
2017-05-02T07:55:53.338Z,976.33
2017-05-02T07:56:56.404Z,976.32
2017-05-02T07:57:58.770Z,976.32
2017-05-02T07:59:01.132Z,976.32
2017-05-02T08:00:03.503Z,976.32
2017-05-02T08:01:05.865Z,976.30
2017-05-02T08:02:08.832Z,976.30
2017-05-02T08:03:11.200Z,976.30
2017-05-02T08:04:13.568Z,976.28
2017-05-02T08:05:15.929Z,976.25
2017-05-02T08:06:18.300Z,976.27
2017-05-02T08:07:21.286Z,976.20
2017-05-02T08:08:23.649Z,976.21
2017-05-02T08:09:26.011Z,976.21
2017-05-02T08:10:28.379Z,976.24
2017-05-02T08:11:30.747Z,976.22
2017-05-02T08:12:33.714Z,976.22
2017-05-02T08:13:36.088Z,976.20
2017-05-02T08:14:38.449Z,976.20
2017-05-02T08:15:40.818Z,976.23
2017-05-02T08:16:43.188Z,976.22
2017-05-02T08:17:46.147Z,976.20
2017-05-02T08:18:48.516Z,976.20
2017-05-02T08:19:50.870Z,976.18
2017-05-02T08:20:53.233Z,976.14
2017-05-02T08:21:55.601Z,976.13
2017-05-02T08:22:58.571Z,976.15
2017-05-02T08:24:00.930Z,976.11
2017-05-02T08:25:03.295Z,976.10
2017-05-02T08:26:05.657Z,976.07
2017-05-02T08:27:08.026Z,976.03
2017-05-02T08:28:10.939Z,976.04
2017-05-02T08:29:13.302Z,976.00
2017-05-02T08:30:15.666Z,976.00
2017-05-02T08:31:18.029Z,975.99
2017-05-02T08:32:20.392Z,975.95
2017-05-02T08:33:23.371Z,975.93
2017-05-02T08:34:25.733Z,975.94
2017-05-02T08:35:28.108Z,975.92
2017-05-02T08:36:30.463Z,975.90
2017-05-02T08:37:32.835Z,975.89
2017-05-02T08:38:37.802Z,975.88
2017-05-02T08:39:40.153Z,975.86
2017-05-02T08:40:42.523Z,975.84
2017-05-02T08:41:44.884Z,975.86
2017-05-02T08:42:47.256Z,975.85
2017-05-02T08:43:50.221Z,975.82
2017-05-02T08:44:52.585Z,975.82
2017-05-02T08:45:54.953Z,975.80
2017-05-02T08:46:57.316Z,975.81
2017-05-02T08:47:59.688Z,975.84
2017-05-02T08:49:02.663Z,975.80
2017-05-02T08:50:05.030Z,975.83
2017-05-02T08:51:07.401Z,975.82
2017-05-02T08:52:09.775Z,975.79
2017-05-02T08:53:12.144Z,975.78
2017-05-02T08:54:15.110Z,975.79
2017-05-02T08:55:17.471Z,975.84
2017-05-02T08:56:19.854Z,975.80
2017-05-02T08:57:22.213Z,975.83
2017-05-02T08:58:24.583Z,975.83
2017-05-02T08:59:27.551Z,975.87
2017-05-02T09:00:29.917Z,975.84
2017-05-02T09:01:32.292Z,975.80
2017-05-02T09:02:34.661Z,975.84
2017-05-02T09:03:37.031Z,975.85
2017-05-02T09:04:39.943Z,975.86
2017-05-02T09:05:42.312Z,975.85
2017-05-02T09:06:44.668Z,975.82
2017-05-02T09:07:47.040Z,975.81
2017-05-02T09:08:49.399Z,975.77
2017-05-02T09:09:52.358Z,975.78
2017-05-02T09:10:54.716Z,975.75
2017-05-02T09:11:57.086Z,975.74
2017-05-02T09:12:59.457Z,975.72
2017-05-02T09:14:01.823Z,975.73
2017-05-02T09:15:04.783Z,975.77
2017-05-02T09:16:07.146Z,975.81
2017-05-02T09:17:09.505Z,975.78
2017-05-02T09:18:11.870Z,975.79
2017-05-02T09:19:14.240Z,975.79
2017-05-02T09:20:17.160Z,975.81
2017-05-02T09:21:19.528Z,975.80
2017-05-02T09:22:21.898Z,975.81
2017-05-02T09:23:24.274Z,975.83
2017-05-02T09:24:26.645Z,975.82
2017-05-02T09:25:29.605Z,975.82
2017-05-02T09:26:31.977Z,975.85
2017-05-02T09:27:34.349Z,975.80
2017-05-02T09:28:36.715Z,975.84
2017-05-02T09:29:39.079Z,975.82
2017-05-02T09:30:42.057Z,975.87
2017-05-02T09:31:44.417Z,975.87
2017-05-02T09:32:46.785Z,975.87
2017-05-02T09:33:49.149Z,975.90
2017-05-02T09:34:51.522Z,975.92
2017-05-02T09:35:54.485Z,975.94
2017-05-02T09:36:56.850Z,975.97
2017-05-02T09:37:59.214Z,975.92
2017-05-02T09:39:01.584Z,975.95
2017-05-02T09:40:03.950Z,975.93
2017-05-02T09:41:06.913Z,975.90
2017-05-02T09:42:09.278Z,975.92
2017-05-02T09:43:11.641Z,975.91
2017-05-02T09:44:14.003Z,975.91
2017-05-02T09:45:16.369Z,975.89
2017-05-02T09:46:19.281Z,975.89
2017-05-02T09:47:21.658Z,975.87
2017-05-02T09:48:24.023Z,975.90
2017-05-02T09:49:26.392Z,975.89
2017-05-02T09:50:28.768Z,975.91
2017-05-02T09:51:31.720Z,975.91
2017-05-02T09:52:34.083Z,975.95
2017-05-02T09:53:36.453Z,975.90
2017-05-02T09:54:38.820Z,975.93
2017-05-02T09:55:41.184Z,975.89
2017-05-02T09:56:44.160Z,975.94
2017-05-02T09:57:46.519Z,975.91
2017-05-02T09:58:48.884Z,975.94
2017-05-02T09:59:51.252Z,975.93
2017-05-02T10:00:53.619Z,975.94
2017-05-02T10:01:58.544Z,975.90
2017-05-02T10:03:00.909Z,975.97
2017-05-02T10:04:03.270Z,975.94
2017-05-02T10:05:05.644Z,975.96
2017-05-02T10:06:08.014Z,975.94
2017-05-02T10:07:10.990Z,975.95
2017-05-02T10:08:13.356Z,975.97
2017-05-02T10:09:15.728Z,975.95
2017-05-02T10:10:18.094Z,975.98
2017-05-02T10:11:20.457Z,975.95
2017-05-02T10:12:23.422Z,975.97
2017-05-02T10:13:25.790Z,975.99
2017-05-02T10:14:28.157Z,976.00
2017-05-02T10:15:30.520Z,976.00
2017-05-02T10:16:32.899Z,975.99
2017-05-02T10:17:35.821Z,975.99
2017-05-02T10:18:38.189Z,976.00
2017-05-02T10:19:40.547Z,975.99
2017-05-02T10:20:42.905Z,976.04
2017-05-02T10:21:45.276Z,976.03
2017-05-02T10:22:48.240Z,976.02
2017-05-02T10:23:50.598Z,976.03
2017-05-02T10:24:52.972Z,976.03
2017-05-02T10:25:55.342Z,976.07
2017-05-02T10:26:57.706Z,976.02
2017-05-02T10:28:00.638Z,976.03
2017-05-02T10:29:02.996Z,976.05
2017-05-02T10:30:05.380Z,976.01
2017-05-02T10:31:07.738Z,975.99
2017-05-02T10:32:10.113Z,976.01
2017-05-02T10:33:13.073Z,976.00
2017-05-02T10:34:15.443Z,975.96
2017-05-02T10:35:17.811Z,975.98
2017-05-02T10:36:20.166Z,975.96
2017-05-02T10:37:22.544Z,975.95
2017-05-02T10:38:25.712Z,975.95
2017-05-02T10:39:28.082Z,975.98
2017-05-02T10:40:30.453Z,975.95
2017-05-02T10:41:32.818Z,975.94
2017-05-02T10:42:35.187Z,975.94
2017-05-02T10:43:38.150Z,975.95
2017-05-02T10:44:40.519Z,975.95
2017-05-02T10:45:42.881Z,975.93
2017-05-02T10:46:45.255Z,975.96
2017-05-02T10:47:47.617Z,975.95
2017-05-02T10:48:50.577Z,975.98
2017-05-02T10:49:52.944Z,976.02
2017-05-02T10:50:55.329Z,976.01
2017-05-02T10:51:57.676Z,976.02
2017-05-02T10:53:00.042Z,976.00
2017-05-02T10:54:02.997Z,976.01
2017-05-02T10:55:05.380Z,976.01
2017-05-02T10:56:07.740Z,976.00
2017-05-02T10:57:10.102Z,975.97
2017-05-02T10:58:12.463Z,976.02
2017-05-02T10:59:15.433Z,976.00
2017-05-02T11:00:17.795Z,976.01
2017-05-02T11:01:20.161Z,975.98
2017-05-02T11:02:22.525Z,976.01
2017-05-02T11:03:24.893Z,976.03
2017-05-02T11:04:27.860Z,976.03
2017-05-02T11:05:30.219Z,976.04
2017-05-02T11:06:32.592Z,976.04
2017-05-02T11:07:34.956Z,976.05
2017-05-02T11:08:37.321Z,976.09
2017-05-02T11:09:40.278Z,976.08
2017-05-02T11:10:42.637Z,976.10
2017-05-02T11:11:45.009Z,976.10
2017-05-02T11:12:47.369Z,976.11
2017-05-02T11:13:49.740Z,976.09
2017-05-02T11:14:52.704Z,976.14
2017-05-02T11:15:55.067Z,976.15
2017-05-02T11:16:57.442Z,976.15
2017-05-02T11:17:59.806Z,976.24
2017-05-02T11:19:02.170Z,976.21
2017-05-02T11:20:05.137Z,976.22
2017-05-02T11:21:07.501Z,976.29
2017-05-02T11:22:09.874Z,976.30
2017-05-02T11:23:12.246Z,976.30
2017-05-02T11:24:14.608Z,976.34
2017-05-02T11:25:17.527Z,976.33
2017-05-02T11:26:19.900Z,976.35
2017-05-02T11:27:22.270Z,976.38
2017-05-02T11:28:24.627Z,976.40
2017-05-02T11:29:26.986Z,976.42
2017-05-02T11:30:29.964Z,976.45
2017-05-02T11:31:32.322Z,976.49
2017-05-02T11:32:34.690Z,976.48
2017-05-02T11:33:37.066Z,976.54
2017-05-02T11:34:39.424Z,976.54
2017-05-02T11:35:42.389Z,976.57
2017-05-02T11:36:44.753Z,976.56
2017-05-02T11:37:47.126Z,976.54
2017-05-02T11:38:49.486Z,976.55
2017-05-02T11:39:51.849Z,976.61
2017-05-02T11:40:54.821Z,976.61
2017-05-02T11:41:57.184Z,976.62
2017-05-02T11:42:59.545Z,976.63
2017-05-02T11:44:01.914Z,976.66
2017-05-02T11:45:04.276Z,976.67
2017-05-02T11:46:07.247Z,976.66
2017-05-02T11:47:09.619Z,976.74
2017-05-02T11:48:11.977Z,976.68
2017-05-02T11:49:14.352Z,976.71
2017-05-02T11:50:16.718Z,976.76
2017-05-02T11:51:19.645Z,976.76
2017-05-02T11:52:22.016Z,976.78
2017-05-02T11:53:24.384Z,976.76
2017-05-02T11:54:26.753Z,976.79
2017-05-02T11:55:29.120Z,976.78
2017-05-02T11:56:32.088Z,976.77
2017-05-02T11:57:34.460Z,976.79
2017-05-02T11:58:36.821Z,976.81
2017-05-02T11:59:39.205Z,976.81
2017-05-02T12:00:41.570Z,976.80
2017-05-02T12:01:44.537Z,976.79
2017-05-02T12:02:46.911Z,976.83
2017-05-02T12:03:49.283Z,976.86
2017-05-02T12:04:51.647Z,976.89
2017-05-02T12:05:54.012Z,976.88
2017-05-02T12:06:56.938Z,976.88
2017-05-02T12:07:59.303Z,976.89
2017-05-02T12:09:01.675Z,976.95
2017-05-02T12:10:04.049Z,976.96
2017-05-02T12:11:06.427Z,976.98
2017-05-02T12:12:09.382Z,976.99
2017-05-02T12:13:11.715Z,977.04
2017-05-02T12:14:14.081Z,977.06
2017-05-02T12:15:16.451Z,977.10
2017-05-02T12:16:18.834Z,977.09
2017-05-02T12:17:21.738Z,977.12
2017-05-02T12:18:24.109Z,977.15
2017-05-02T12:19:26.496Z,977.14
2017-05-02T12:20:28.861Z,977.19
2017-05-02T12:21:31.228Z,977.22
2017-05-02T12:22:34.148Z,977.22
2017-05-02T12:23:36.514Z,977.25
2017-05-02T12:24:38.884Z,977.25
2017-05-02T12:25:41.252Z,977.28
2017-05-02T12:26:43.621Z,977.29
2017-05-02T12:27:46.549Z,977.29
2017-05-02T12:28:48.924Z,977.31
2017-05-02T12:29:51.286Z,977.30
2017-05-02T12:30:53.658Z,977.27
2017-05-02T12:31:56.033Z,977.30
2017-05-02T12:32:58.950Z,977.32
2017-05-02T12:34:01.317Z,977.33
2017-05-02T12:35:03.689Z,977.35
2017-05-02T12:36:06.065Z,977.34
2017-05-02T12:37:08.441Z,977.38
2017-05-02T12:38:11.367Z,977.39
2017-05-02T12:39:13.736Z,977.46
2017-05-02T12:40:16.104Z,977.45
2017-05-02T12:41:18.479Z,977.45
2017-05-02T12:42:20.860Z,977.49
2017-05-02T12:43:23.790Z,977.56
2017-05-02T12:44:26.151Z,977.55
2017-05-02T12:45:28.527Z,977.56
2017-05-02T12:46:30.895Z,977.61
2017-05-02T12:47:33.266Z,977.60
2017-05-02T12:48:36.183Z,977.64
2017-05-02T12:49:38.552Z,977.63
2017-05-02T12:50:40.924Z,977.65
2017-05-02T12:51:43.300Z,977.66
2017-05-02T12:52:45.668Z,977.65
2017-05-02T12:53:48.588Z,977.70
2017-05-02T12:55:53.338Z,977.71
2017-05-02T12:56:55.701Z,977.71
2017-05-02T12:57:58.069Z,977.76
2017-05-02T12:59:00.994Z,977.77
2017-05-02T13:00:03.360Z,977.80
2017-05-02T13:01:05.736Z,977.83
2017-05-02T13:02:08.104Z,977.85